Genua — IIYU — position and weather

sailwx.info

Track history (hours):
 
Tides and Currents Weather Stations Pressure Air Temp Water Temp Dewpoint Dewpoint Depression Visibility Wind Speed Wind Dir Waves Ship Positions

Genua

Last reported at 2015-Mar-05 02:31 UTC. Time now 2015-Mar-05 02:38 UTC.
Position N 44°25' E 008°47'.

Length 35 m; draft 6 m.

Type: Tug. MMSI: 247204000.

Date/timePositionNaut miles runAvg speedWind from/ knotsBaromVisibWave heightAir tempDewpointWater temp
2015-Mar-05 02:31N 44°25' E 008°47'0 0.2
2015-Mar-05 00:30N 44°25' E 008°47'0 0.2
2015-Mar-04 23:33N 44°25' E 008°47'0 0.1
2015-Mar-04 22:33N 44°25' E 008°48'1 0.1
2015-Mar-04 16:16N 44°25' E 008°47'0 0.0
2015-Mar-04 15:27N 44°25' E 008°47'0 0.0
2015-Mar-04 14:29N 44°25' E 008°47'0 0.0
2015-Mar-04 12:31N 44°25' E 008°47'0 0.0
2015-Mar-04 11:12N 44°25' E 008°47'0 0.2
2015-Mar-04 10:32N 44°25' E 008°47'0 0.2
2015-Mar-04 09:33N 44°25' E 008°47'0 0.2
2015-Mar-04 08:28N 44°25' E 008°47'0 0.2
2015-Mar-04 07:26N 44°25' E 008°47'2 2.5
2015-Mar-04 06:25N 44°25' E 008°50'2 1.8
2015-Mar-04 05:33N 44°25' E 008°48'1 0.8
2015-Mar-04 04:33N 44°25' E 008°47'0 0.3
2015-Mar-04 03:33N 44°25' E 008°47'0 0.0
2015-Mar-04 02:32N 44°25' E 008°47'0 0.0
2015-Mar-04 01:32N 44°25' E 008°47'0 0.0
2015-Mar-04 00:33N 44°25' E 008°47'0 0.0
2015-Mar-03 23:32N 44°25' E 008°47'0 0.0
2015-Mar-03 22:27N 44°25' E 008°47'0 0.0
2015-Mar-03 21:33N 44°25' E 008°47'0 0.0
2015-Mar-03 20:32N 44°25' E 008°47'0 0.0
2015-Mar-03 19:32N 44°25' E 008°47'0 0.1
2015-Mar-03 16:13N 44°25' E 008°47'0 0.3
2015-Mar-03 15:33N 44°25' E 008°47'0 0.4
2015-Mar-03 14:29N 44°25' E 008°47'0 0.0
2015-Mar-03 13:27N 44°25' E 008°47'4 4.4
2015-Mar-03 12:33N 44°24' E 008°52'2 2.4
2015-Mar-03 11:33N 44°25' E 008°55'0 0.0
2015-Mar-03 10:33N 44°25' E 008°55'0 0.0
2015-Mar-02 10:26N 44°25' E 008°55'0 0.0
2015-Mar-02 09:34N 44°25' E 008°55'0 0.0
2015-Mar-02 08:33N 44°25' E 008°55'0 0.0
2015-Feb-28 14:03N 44°25' E 008°55'0 0.3
2015-Feb-28 13:34N 44°25' E 008°55'6 5.8
2015-Feb-28 12:30N 44°25' E 008°47'0 0.4
2015-Feb-28 11:32N 44°25' E 008°47'0 0.3
2015-Feb-28 10:33N 44°25' E 008°48'1 0.7
2015-Feb-28 09:33N 44°25' E 008°47'0 0.0
2015-Feb-28 08:30N 44°25' E 008°47'0 0.0
2015-Feb-28 07:33N 44°25' E 008°47'2 2.5
2015-Feb-28 06:33N 44°25' E 008°50'2 0.2
2015-Feb-27 23:34N 44°25' E 008°48'1 0.8
2015-Feb-27 22:33N 44°25' E 008°47'0 0.0
2015-Feb-27 21:31N 44°25' E 008°47'0 0.0
2015-Feb-27 20:31N 44°25' E 008°47'0 0.0
2015-Feb-27 19:26N 44°25' E 008°47'0 0.0
2015-Feb-27 18:32N 44°25' E 008°47'0 0.0
2015-Feb-27 17:33N 44°25' E 008°47'0 0.0
2015-Feb-27 16:25N 44°25' E 008°47'0 0.0
2015-Feb-27 15:31N 44°25' E 008°47'0 0.4
2015-Feb-27 14:33N 44°25' E 008°47'0 0.3
2015-Feb-27 13:17N 44°25' E 008°47'0 0.3
2015-Feb-27 12:29N 44°25' E 008°47'0 0.2
2015-Feb-27 11:31N 44°25' E 008°47'1 0.9
2015-Feb-27 10:28N 44°25' E 008°45'1 0.8
2015-Feb-27 09:22N 44°25' E 008°47'0 0.0
2015-Feb-27 08:23N 44°25' E 008°47'3 3.1
2015-Feb-27 07:33N 44°25' E 008°50'2 1.8
2015-Feb-27 06:32N 44°24' E 008°48'1 0.2
2015-Feb-27 01:11N 44°25' E 008°47'0 0.0
2015-Feb-27 00:24N 44°25' E 008°47'0 0.0
2015-Feb-26 22:18N 44°25' E 008°47'0 0.0
2015-Feb-26 16:05N 44°25' E 008°47'0 0.0
2015-Feb-26 15:24N 44°25' E 008°47'0 0.3
2015-Feb-26 14:05N 44°25' E 008°47'0 0.5
2015-Feb-26 13:33N 44°25' E 008°47'0 0.0
2015-Feb-26 10:15N 44°25' E 008°47'0 0.1
2015-Feb-26 09:29N 44°25' E 008°47'2 2.4
2015-Feb-26 08:33N 44°25' E 008°50'1 0.9
2015-Feb-26 07:33N 44°25' E 008°49'2 1.8
2015-Feb-26 06:33N 44°25' E 008°47'0 0.0
2015-Feb-26 05:30N 44°25' E 008°47'0 0.0
2015-Feb-26 04:17N 44°25' E 008°47'0 0.0
2015-Feb-26 03:33N 44°25' E 008°47'0 0.0
2015-Feb-26 02:17N 44°25' E 008°47'0 0.0
2015-Feb-26 01:33N 44°25' E 008°47'0 0.0
2015-Feb-26 00:25N 44°25' E 008°47'0 0.0
2015-Feb-25 23:33N 44°25' E 008°47'0 0.0
2015-Feb-25 22:32N 44°25' E 008°47'0 0.0
2015-Feb-25 21:34N 44°25' E 008°47'0 0.0
2015-Feb-25 20:12N 44°25' E 008°47'0 0.0
2015-Feb-25 19:33N 44°25' E 008°47'0 0.0
2015-Feb-25 17:22N 44°25' E 008°47'0 0.0
2015-Feb-25 16:17N 44°25' E 008°47'0 0.0
2015-Feb-25 15:32N 44°25' E 008°47'0 0.0
2015-Feb-25 14:34N 44°25' E 008°47'0 0.0
2015-Feb-25 13:25N 44°25' E 008°47'0 0.0
2015-Feb-25 12:19N 44°25' E 008°47'0 0.0
2015-Feb-25 11:34N 44°25' E 008°47'0 0.0
2015-Feb-25 10:30N 44°25' E 008°47'0 0.0
2015-Feb-25 09:33N 44°25' E 008°47'0 0.3
2015-Feb-25 08:32N 44°25' E 008°47'0 0.3
2015-Feb-25 07:34N 44°25' E 008°47'0 0.0
2015-Feb-25 06:32N 44°25' E 008°47'0 0.0
2015-Feb-25 05:33N 44°25' E 008°47'0 0.0
2015-Feb-25 04:33N 44°25' E 008°47'0 0.0
2015-Feb-25 03:32N 44°25' E 008°47'1 0.7
2015-Feb-25 02:32N 44°25' E 008°48'0 0.0
2015-Feb-25 01:29N 44°25' E 008°48'0 0.0
2015-Feb-25 00:33N 44°25' E 008°48'0 0.0
2015-Feb-24 22:12N 44°25' E 008°48'0 0.0
2015-Feb-24 21:29N 44°25' E 008°48'1 0.8
2015-Feb-24 20:34N 44°25' E 008°47'0 0.0
2015-Feb-24 19:34N 44°25' E 008°47'1 0.8
2015-Feb-24 18:33N 44°25' E 008°48'0 0.0
2015-Feb-24 17:34N 44°25' E 008°48'0 0.0
2015-Feb-24 16:32N 44°25' E 008°48'0 0.0
2015-Feb-24 15:31N 44°25' E 008°48'0 0.0
2015-Feb-24 14:34N 44°25' E 008°48'0 0.0
2015-Feb-24 13:33N 44°25' E 008°48'0 0.1
2015-Feb-24 12:33N 44°25' E 008°47'1 0.7
2015-Feb-24 11:33N 44°25' E 008°47'0 0.4
2015-Feb-24 10:33N 44°25' E 008°47'0 0.1
2015-Feb-24 09:27N 44°25' E 008°47'2 1.9
2015-Feb-24 08:33N 44°25' E 008°50'1 1.5
2015-Feb-24 07:33N 44°24' E 008°48'1 1.3
2015-Feb-24 06:32N 44°25' E 008°47'0 0.0
2015-Feb-24 05:19N 44°25' E 008°47'0 0.0
2015-Feb-24 04:31N 44°25' E 008°47'0 0.0
2015-Feb-24 03:33N 44°25' E 008°47'0 0.0
2015-Feb-24 02:33N 44°25' E 008°47'0 0.0
2015-Feb-24 01:30N 44°25' E 008°47'0 0.0
2015-Feb-24 00:33N 44°25' E 008°47'0 0.0
2015-Feb-23 23:33N 44°25' E 008°47'0 0.0
2015-Feb-23 22:33N 44°25' E 008°47'0 0.0
2015-Feb-23 21:33N 44°25' E 008°47'0 0.0
2015-Feb-23 20:17N 44°25' E 008°47'0 0.0
2015-Feb-23 19:29N 44°25' E 008°47'0 0.0
2015-Feb-23 18:30N 44°25' E 008°47'0 0.3
2015-Feb-23 17:34N 44°25' E 008°46'6 6.4
2015-Feb-23 16:34N 44°25' E 008°55'0 0.0
2015-Feb-23 15:34N 44°25' E 008°55'0 0.0
2015-Feb-23 07:33N 44°25' E 008°55'0 0.0
2015-Feb-23 06:33N 44°25' E 008°55'0 0.0
2015-Feb-23 05:33N 44°25' E 008°55'0 0.0
2015-Feb-23 04:33N 44°25' E 008°55'0 0.0
2015-Feb-23 03:33N 44°25' E 008°55'0 0.0
2015-Feb-23 02:33N 44°25' E 008°55'  
Track history (hours):
 
Tides and Currents Weather Stations Pressure Air Temp Water Temp Dewpoint Dewpoint Depression Visibility Wind Speed Wind Dir Waves Ship Positions

Genua

Last reported at 2015-Mar-05 02:31 UTC. Time now 2015-Mar-05 02:38 UTC.
Position N 44°25' E 008°47'.

Length 35 m; draft 6 m.

Type: Tug. MMSI: 247204000.

Date/timePositionNaut miles runAvg speedWind from/ knotsBaromVisibWave heightAir tempDewpointWater temp
2015-Mar-05 02:31N 44°25' E 008°47'0 0.2
2015-Mar-05 00:30N 44°25' E 008°47'0 0.2
2015-Mar-04 23:33N 44°25' E 008°47'0 0.1
2015-Mar-04 22:33N 44°25' E 008°48'1 0.1
2015-Mar-04 16:16N 44°25' E 008°47'0 0.0
2015-Mar-04 15:27N 44°25' E 008°47'0 0.0
2015-Mar-04 14:29N 44°25' E 008°47'0 0.0
2015-Mar-04 12:31N 44°25' E 008°47'0 0.0
2015-Mar-04 11:12N 44°25' E 008°47'0 0.2
2015-Mar-04 10:32N 44°25' E 008°47'0 0.2
2015-Mar-04 09:33N 44°25' E 008°47'0 0.2
2015-Mar-04 08:28N 44°25' E 008°47'0 0.2
2015-Mar-04 07:26N 44°25' E 008°47'2 2.5
2015-Mar-04 06:25N 44°25' E 008°50'2 1.8
2015-Mar-04 05:33N 44°25' E 008°48'1 0.8
2015-Mar-04 04:33N 44°25' E 008°47'0 0.3
2015-Mar-04 03:33N 44°25' E 008°47'0 0.0
2015-Mar-04 02:32N 44°25' E 008°47'0 0.0
2015-Mar-04 01:32N 44°25' E 008°47'0 0.0
2015-Mar-04 00:33N 44°25' E 008°47'0 0.0
2015-Mar-03 23:32N 44°25' E 008°47'0 0.0
2015-Mar-03 22:27N 44°25' E 008°47'0 0.0
2015-Mar-03 21:33N 44°25' E 008°47'0 0.0
2015-Mar-03 20:32N 44°25' E 008°47'0 0.0
2015-Mar-03 19:32N 44°25' E 008°47'0 0.1
2015-Mar-03 16:13N 44°25' E 008°47'0 0.3
2015-Mar-03 15:33N 44°25' E 008°47'0 0.4
2015-Mar-03 14:29N 44°25' E 008°47'0 0.0
2015-Mar-03 13:27N 44°25' E 008°47'4 4.4
2015-Mar-03 12:33N 44°24' E 008°52'2 2.4
2015-Mar-03 11:33N 44°25' E 008°55'0 0.0
2015-Mar-03 10:33N 44°25' E 008°55'0 0.0
2015-Mar-02 10:26N 44°25' E 008°55'0 0.0
2015-Mar-02 09:34N 44°25' E 008°55'0 0.0
2015-Mar-02 08:33N 44°25' E 008°55'0 0.0
2015-Feb-28 14:03N 44°25' E 008°55'0 0.3
2015-Feb-28 13:34N 44°25' E 008°55'6 5.8
2015-Feb-28 12:30N 44°25' E 008°47'0 0.4
2015-Feb-28 11:32N 44°25' E 008°47'0 0.3
2015-Feb-28 10:33N 44°25' E 008°48'1 0.7
2015-Feb-28 09:33N 44°25' E 008°47'0 0.0
2015-Feb-28 08:30N 44°25' E 008°47'0 0.0
2015-Feb-28 07:33N 44°25' E 008°47'2 2.5
2015-Feb-28 06:33N 44°25' E 008°50'2 0.2
2015-Feb-27 23:34N 44°25' E 008°48'1 0.8
2015-Feb-27 22:33N 44°25' E 008°47'0 0.0
2015-Feb-27 21:31N 44°25' E 008°47'0 0.0
2015-Feb-27 20:31N 44°25' E 008°47'0 0.0
2015-Feb-27 19:26N 44°25' E 008°47'0 0.0
2015-Feb-27 18:32N 44°25' E 008°47'0 0.0
2015-Feb-27 17:33N 44°25' E 008°47'0 0.0
2015-Feb-27 16:25N 44°25' E 008°47'0 0.0
2015-Feb-27 15:31N 44°25' E 008°47'0 0.4
2015-Feb-27 14:33N 44°25' E 008°47'0 0.3
2015-Feb-27 13:17N 44°25' E 008°47'0 0.3
2015-Feb-27 12:29N 44°25' E 008°47'0 0.2
2015-Feb-27 11:31N 44°25' E 008°47'1 0.9
2015-Feb-27 10:28N 44°25' E 008°45'1 0.8
2015-Feb-27 09:22N 44°25' E 008°47'0 0.0
2015-Feb-27 08:23N 44°25' E 008°47'3 3.1
2015-Feb-27 07:33N 44°25' E 008°50'2 1.8
2015-Feb-27 06:32N 44°24' E 008°48'1 0.2
2015-Feb-27 01:11N 44°25' E 008°47'0 0.0
2015-Feb-27 00:24N 44°25' E 008°47'0 0.0
2015-Feb-26 22:18N 44°25' E 008°47'0 0.0
2015-Feb-26 16:05N 44°25' E 008°47'0 0.0
2015-Feb-26 15:24N 44°25' E 008°47'0 0.3
2015-Feb-26 14:05N 44°25' E 008°47'0 0.5
2015-Feb-26 13:33N 44°25' E 008°47'0 0.0
2015-Feb-26 10:15N 44°25' E 008°47'0 0.1
2015-Feb-26 09:29N 44°25' E 008°47'2 2.4
2015-Feb-26 08:33N 44°25' E 008°50'1 0.9
2015-Feb-26 07:33N 44°25' E 008°49'2 1.8
2015-Feb-26 06:33N 44°25' E 008°47'0 0.0
2015-Feb-26 05:30N 44°25' E 008°47'0 0.0
2015-Feb-26 04:17N 44°25' E 008°47'0 0.0
2015-Feb-26 03:33N 44°25' E 008°47'0 0.0
2015-Feb-26 02:17N 44°25' E 008°47'0 0.0
2015-Feb-26 01:33N 44°25' E 008°47'0 0.0
2015-Feb-26 00:25N 44°25' E 008°47'0 0.0
2015-Feb-25 23:33N 44°25' E 008°47'0 0.0
2015-Feb-25 22:32N 44°25' E 008°47'0 0.0
2015-Feb-25 21:34N 44°25' E 008°47'0 0.0
2015-Feb-25 20:12N 44°25' E 008°47'0 0.0
2015-Feb-25 19:33N 44°25' E 008°47'0 0.0
2015-Feb-25 17:22N 44°25' E 008°47'0 0.0
2015-Feb-25 16:17N 44°25' E 008°47'0 0.0
2015-Feb-25 15:32N 44°25' E 008°47'0 0.0
2015-Feb-25 14:34N 44°25' E 008°47'0 0.0
2015-Feb-25 13:25N 44°25' E 008°47'0 0.0
2015-Feb-25 12:19N 44°25' E 008°47'0 0.0
2015-Feb-25 11:34N 44°25' E 008°47'0 0.0
2015-Feb-25 10:30N 44°25' E 008°47'0 0.0
2015-Feb-25 09:33N 44°25' E 008°47'0 0.3
2015-Feb-25 08:32N 44°25' E 008°47'0 0.3
2015-Feb-25 07:34N 44°25' E 008°47'0 0.0
2015-Feb-25 06:32N 44°25' E 008°47'0 0.0
2015-Feb-25 05:33N 44°25' E 008°47'0 0.0
2015-Feb-25 04:33N 44°25' E 008°47'0 0.0
2015-Feb-25 03:32N 44°25' E 008°47'1 0.7
2015-Feb-25 02:32N 44°25' E 008°48'0 0.0
2015-Feb-25 01:29N 44°25' E 008°48'0 0.0
2015-Feb-25 00:33N 44°25' E 008°48'0 0.0
2015-Feb-24 22:12N 44°25' E 008°48'0 0.0
2015-Feb-24 21:29N 44°25' E 008°48'1 0.8
2015-Feb-24 20:34N 44°25' E 008°47'0 0.0
2015-Feb-24 19:34N 44°25' E 008°47'1 0.8
2015-Feb-24 18:33N 44°25' E 008°48'0 0.0
2015-Feb-24 17:34N 44°25' E 008°48'0 0.0
2015-Feb-24 16:32N 44°25' E 008°48'0 0.0
2015-Feb-24 15:31N 44°25' E 008°48'0 0.0
2015-Feb-24 14:34N 44°25' E 008°48'0 0.0
2015-Feb-24 13:33N 44°25' E 008°48'0 0.1
2015-Feb-24 12:33N 44°25' E 008°47'1 0.7
2015-Feb-24 11:33N 44°25' E 008°47'0 0.4
2015-Feb-24 10:33N 44°25' E 008°47'0 0.1
2015-Feb-24 09:27N 44°25' E 008°47'2 1.9
2015-Feb-24 08:33N 44°25' E 008°50'1 1.5
2015-Feb-24 07:33N 44°24' E 008°48'1 1.3
2015-Feb-24 06:32N 44°25' E 008°47'0 0.0
2015-Feb-24 05:19N 44°25' E 008°47'0 0.0
2015-Feb-24 04:31N 44°25' E 008°47'0 0.0
2015-Feb-24 03:33N 44°25' E 008°47'0 0.0
2015-Feb-24 02:33N 44°25' E 008°47'0 0.0
2015-Feb-24 01:30N 44°25' E 008°47'0 0.0
2015-Feb-24 00:33N 44°25' E 008°47'0 0.0
2015-Feb-23 23:33N 44°25' E 008°47'0 0.0
2015-Feb-23 22:33N 44°25' E 008°47'0 0.0
2015-Feb-23 21:33N 44°25' E 008°47'0 0.0
2015-Feb-23 20:17N 44°25' E 008°47'0 0.0
2015-Feb-23 19:29N 44°25' E 008°47'0 0.0
2015-Feb-23 18:30N 44°25' E 008°47'0 0.3
2015-Feb-23 17:34N 44°25' E 008°46'6 6.4
2015-Feb-23 16:34N 44°25' E 008°55'0 0.0
2015-Feb-23 15:34N 44°25' E 008°55'0 0.0
2015-Feb-23 07:33N 44°25' E 008°55'0 0.0
2015-Feb-23 06:33N 44°25' E 008°55'0 0.0
2015-Feb-23 05:33N 44°25' E 008°55'0 0.0
2015-Feb-23 04:33N 44°25' E 008°55'0 0.0
2015-Feb-23 03:33N 44°25' E 008°55'0 0.0
2015-Feb-23 02:33N 44°25' E 008°55'  

Dump ship's entire track history